WETTERDATEN

GESTERN
Time Temp. Taup. r.Fe. Windrich Windstärke Windböe Druck 1h Prec. 24h Prec.
00:05 2.1 -0.3 84 114 2.2 6.1 984.3 0.0000 0.0000
00:14 2.1 -0.3 84 115 2.2 5.8 984.1 0.0000 0.0000
00:24 2.1 -0.3 84 106 1.7 6.1 983.8 0.0000 0.0000
00:35 2.1 -0.3 84 113 1.7 5 983.3 0.0000 0.0000
00:45 2.1 -0.3 84 114 1.7 5.3 983 0.0000 0.0000
00:54 2.2 -0.2 84 118 2.2 4.7 982.9 0.0000 0.0000
01:10 2.2 -0.2 84 110 2.2 5.8 982.5 0.0000 0.0000
01:30 2.1 -0.3 84 108 1.7 4.2 981.9 0.0000 0.0000
01:40 2.1 -0.3 84 113 1.7 5 981.6 0.0000 0.0000
01:50 2.1 -0.3 84 110 1.7 6.4 981.3 0.0000 0.0000
02:00 2.1 -0.4 83 101 2.2 8.6 981 0.0000 0.0000
02:10 2.1 -0.4 83 112 1.7 5 980.8 0.0000 0.0000
02:21 2.1 -0.4 83 117 1.7 6.7 980.5 0.0000 0.0000
02:35 2.1 -0.4 83 103 1.7 3.9 980.1 0.0000 0.0000
02:51 2.2 -0.3 83 116 1.7 5 979.8 0.0000 0.0000
03:01 2.2 -0.3 83 112 2.2 5.3 979.4 0.0000 0.0000
03:26 2.2 -0.3 83 107 1.7 4.7 979 0.0000 0.0000
03:36 2.2 -0.3 83 114 2.5 6.1 978.7 0.0000 0.0000
03:46 2.2 -0.3 83 115 1.7 6.1 978.6 0.0000 0.0000
03:56 2.2 -0.3 83 116 2.2 4.7 978.5 0.0000 0.0000
04:21 2.1 -0.4 83 107 1.7 5.8 977.8 0.0000 0.0000
04:31 2.1 -0.4 83 115 1.7 5.3 977.7 0.0000 0.0000
04:42 2.1 -0.4 83 116 2.5 5.8 977.5 0.0000 0.0000
04:52 2.1 -0.4 83 111 2.2 5.3 977.4 0.0000 0.0000
05:01 2.2 -0.3 83 113 1.7 5.8 977.2 0.0000 0.0000
05:22 2.2 -0.3 83 111 2.2 5.3 977 0.0000 0.0000
05:41 2.3 -0.4 82 112 2.2 6.4 976.6 0.0000 0.0000
05:52 2.3 -0.4 82 112 2.2 5 976.6 0.0000 0.0000
06:02 2.4 -0.3 82 107 1.7 5 976.5 0.0000 0.0000
06:12 2.4 -0.3 82 113 1.7 4.7 976.4 0.0000 0.0000
06:21 2.5 -0.4 81 114 1.7 4.7 976.3 0.0000 0.0000
06:32 2.5 -0.4 81 114 2.2 6.1 976.3 0.0000 0.0000
06:52 2.6 -0.3 81 111 1.4 4.2 975.9 0.0000 0.0000
07:02 2.5 -0.4 81 114 1.7 3.3 975.9 0.0000 0.0000
07:12 2.5 -0.4 81 117 2.5 6.1 975.7 0.0000 0.0000
07:22 2.5 -0.4 81 110 1.4 3.6 975.6 0.0000 0.0000
07:32 2.4 -0.5 81 114 1.4 3.9 975.6 0.0000 0.0000
07:42 2.4 -0.3 82 113 2.2 5 975.5 0.0000 0.0000
07:52 2.4 -0.2 83 116 1.7 4.2 975.3 0.0000 0.0000
08:02 2.3 -0.3 83 111 1.1 3.3 975.3 0.0000 0.0000
08:13 2.3 -0.3 83 112 1.1 3.3 975.3 0.0000 0.0000
08:23 2.3 -0.3 83 114 1.4 6.1 975.3 0.0000 0.0000
08:32 2.3 -0.1 84 101 1.4 3.6 975.2 0.0000 0.0000
08:42 2.2 -0.2 84 113 1.4 3.6 975.2 0.0000 0.0000
08:53 2.2 0 85 102 1.1 3.3 975 0.0000 0.0000
09:03 2.2 0 85 110 1.1 2.8 975 0.0000 0.0000
09:12 2.1 -0.1 85 90 1.1 2.5 975.2 0.0000 0.0000
09:33 2.2 0 85 90 0.8 1.7 975.3 0.0000 0.0000
09:43 2.2 0 85 75 0.8 2.2 975.3 0.0000 0.0000
10:38 2.6 0.2 84 90 1.1 4.2 975.3 0.0000 0.0000
10:48 2.7 0.3 84 90 0.8 2.8 975.3 0.0000 0.0000
11:09 2.8 0.4 84 99 1.1 3.6 975.2 0.0000 0.0000
11:18 2.8 0.4 84 109 1.1 3.3 975.3 0.0000 0.0000
11:33 2.9 0.5 84 77 0.8 2.8 975.3 0.0000 0.0000
11:49 3 0.6 84 109 1.1 3.3 975.3 0.0000 0.0000
11:58 3.1 0.7 84 90 0.8 2.2 975.2 0.0000 0.0000
12:08 3.2 0.6 83 106 1.1 2.5 975.4 0.0000 0.0000
12:19 3.2 0.6 83 113 1.1 2.8 975.5 0.0000 0.0000
12:29 3.3 0.7 83 105 0.8 2.5 975.5 0.0000 0.0000
12:38 3.3 0.7 83 53 0.3 1.1 975.5 0.0000 0.0000
12:49 3.3 0.7 83 68 0.8 1.7 975.5 0.0000 0.0000
12:59 3.2 0.6 83 45 0.8 1.7 975.6 0.0000 0.0000
13:09 3.1 0.5 83 36 0.8 2.2 975.8 0.0000 0.0000
13:18 3.1 0.7 84 90 0.8 2.2 975.8 0.0000 0.0000
13:29 3.1 0.7 84 45 0.8 1.7 975.8 0.0000 0.0000
13:49 3.2 0.8 84 105 0.8 2.2 976 0.0000 0.0000
13:59 3.2 0.9 85 115 0.8 2.2 976.1 0.0000 0.0000
14:09 3.2 0.8 84 90 0.8 2.2 976.4 0.0000 0.0000
14:19 3.2 0.8 84 118 0.8 1.7 976.5 0.0000 0.0000
14:29 3.2 0.9 85 119 0.8 2.2 976.5 0.0000 0.0000
14:40 3.2 0.9 85 115 0.8 2.5 976.6 0.0000 0.0000
14:49 3.3 1 85 90 0.8 2.2 976.7 0.0000 0.0000
14:59 3.3 1 85 33 0.3 1.1 976.8 0.0000 0.0000
15:15 3.3 1 85 90 0.3 1.7 976.9 0.0000 0.0000
15:24 3.3 1 85 90 0.3 1.7 977.1 0.0000 0.0000
15:34 3.3 1 85 90 0.3 1.7 977.1 0.0000 0.0000
15:44 3.3 1 85 131 0.3 1.7 977.4 0.0000 0.0000
16:40 3.1 1 86 127 1.1 2.5 978.3 0.0000 0.0000
16:49 3 0.9 86 119 0.8 1.7 978.4 0.0000 0.0000
17:00 3 0.9 86 116 0.8 2.2 978.6 0.0000 0.0000
17:10 2.9 0.8 86 117 0.8 1.7 978.7 0.0000 0.0000
17:19 2.8 0.7 86 123 0.8 2.2 978.8 0.1010 0.1000
17:30 2.7 0.6 86 131 0.3 1.4 978.9 0.2020 0.2000
17:37 2.6 0.5 86 135 0.3 1.4 979 0.3030 0.3000
17:48 2.5 0.4 86 135 0.3 1.7 979 0.4040 0.4000
17:58 2.5 0.4 86 126 0.3 1.1 979.2 0.5050 0.5000
18:07 2.4 0.3 86 146 0.3 1.1 979.3 0.6060 0.6000
18:18 2.4 0.5 87 140 0.3 1.4 979.6 0.5050 0.6000
18:28 2.3 0.4 87 130 0.3 1.1 979.6 0.4040 0.6000
18:38 2.3 0.4 87 189 0.3 1.1 979.8 0.3030 0.6000
18:47 2.3 0.4 87 168 0.3 0.8 979.9 0.2020 0.6000
18:58 2.3 0.4 87 123 0.3 1.4 979.8 0.2020 0.7000
19:08 2.2 0.3 87 130 0.3 1.1 979.9 0.1010 0.7000
19:18 2.2 0.3 87 135 0.3 1.1 979.9 0.1010 0.7000
19:27 2.2 0.3 87 135 0.3 0.8 980 0.2020 0.8000
19:38 2.2 0.3 87 124 0.3 1.1 979.9 0.2020 0.8000
19:48 2.2 0.3 87 140 0.3 0.8 980 0.2020 0.8000
19:58 2.2 0.3 87 147 0.3 0.8 980 0.1010 0.8000
20:08 2.2 0.3 87 135 0.3 1.1 980.1 0.1010 0.8000
20:18 2.2 0.4 88 135 0.3 1.1 980.2 0.1010 0.8000
20:28 2.2 0.4 88 135 0.3 1.4 980.2 0.0000 0.8000
20:38 2.2 0.4 88 135 0.3 1.4 980.3 0.0000 0.8000
20:48 2.2 0.4 88 123 0.3 1.4 980.3 0.0000 0.8000
20:58 2.2 0.4 88 90 0.3 1.1 980.2 0.0000 0.8000
21:08 2.3 0.5 88 131 0.3 1.4 980.2 0.0000 0.8000
21:19 2.3 0.5 88 135 0.8 1.4 980.2 0.0000 0.8000
21:29 2.4 0.6 88 135 0.3 1.4 980.3 0.0000 0.8000
21:38 2.4 0.6 88 135 0.3 1.7 980.1 0.0000 0.8000
21:48 2.5 0.7 88 167 0.3 1.4 980.1 0.0000 0.8000
21:59 2.5 0.7 88 149 0.8 1.7 980.1 0.0000 0.8000
22:09 2.6 0.8 88 152 0.8 2.2 980.3 0.0000 0.8000
22:18 2.6 0.8 88 139 0.8 1.4 980.3 0.0000 0.8000
22:29 2.7 0.9 88 153 0.8 2.5 980.3 0.0000 0.8000
22:39 2.8 1.2 89 130 0.3 1.4 980.1 0.0000 0.8000
22:49 2.8 1.2 89 153 0.3 1.1 979.9 0.0000 0.8000
22:59 2.9 1.3 89 124 0.8 1.7 980.1 0.0000 0.8000
23:09 3 1.4 89 156 0.8 1.4 980 0.0000 0.8000
23:19 3.1 1.5 89 218 0.8 1.7 980 0.0000 0.8000
23:29 3.2 1.6 89 214 0.8 2.8 980.1 0.1010 0.9000
23:39 3.3 1.7 89 174 0.8 2.2 979.9 0.2020 1.0000
23:43 3.3 1.7 89 180 0.8 2.5 979.9 0.3030 1.1000
23:52 3.4 1.8 89 201 0.8 2.8 979.9 0.3030

TAGESSTATISTIK

2019-12-13
TEMPERATUR
MITTEL
2.6
MAXIMUM
3.4
23:52
MINIMUM
2.1
00:05
LUFTDRUCK
MITTEL
978.3
MAXIMUM
984.3
00:05
MINIMUM
975.0
08:53
TAUPUNKT
MITTEL
0.3
MAXIMUM
1.8
23:52
MINIMUM
-0.5
07:32
FEUCHTIGKEIT
MITTEL
85
MAXIMUM
89
22:39
MINIMUM
81
06:21
WINDSTÄRKE
MITTEL
1.1
MAXIMUM
2.5
03:36
WINDBÖE
MITTEL
3.0
MAXIMUM
8.6
02:00
WINDRICHTUNG
VORHERRSCHENDE
SO
54.1%
N
0.0
NO
4.1
O
35.2
SO
54.1
S
4.9
SW
1.6
W
0.0
NW
0.0
NIEDERSCHLAG
REGEN STUNDE
0.6
REGEN TAG
1.1
TEMPERATUR (°C)
MINIMUM
2.1
MAXIMUM
3.4
MITTEL
2.6
LUFTDRUCK (hpa)
MINIMUM
975.0
MAXIMUM
984.3
MITTEL
978.3
MESSGERÄT